Other Surface Observations
Issued by NWS Missoula, MT

Home | Current Version | Previous Version | Text Only | Print | Product List | Glossary On
Versions: 1 2 3 4 5 6 7 8 9 10 11 12 13 14 15 16 17 18 19 20 21 22 23 24 25 26 27 28 29 30 31 32 33 34 35 36 37 38 39 40 41 42 43 44 45 46 47 48 49 50
000
SXUS55 KMSO 260823
OSOMSO
MONTANA AWOS SUMMARY
NATIONAL WEATHER SERVICE MISSOULA MT
222 AM MDT TUE MAY 26 2015

Montana AWOS Reports

TWIN BRIDGES|K7S1 260815Z AUTO 11004KT 7SM 10/08 A2998 RMK AO1 T01000078
MALTA       |KM75 260815Z AUTO 00000KT 40SM 11/07 A2985 RMK AO1 T01060067
LAUREL      |K6S8 260815Z AUTO 00000KT 40SM 09/05 A2989 RMK AO1 T00940050
ROUNDUP     |KRPX 260815Z AUTO 00000KT 40SM 10/06 A2983 RMK AO1 T01000056




USA.gov is the U.S. government's official web portal to all federal, state and local government web resources and services.